Skip Navigation Links Skip Navigation Links

Current Weather

Camarillo, Calif.

For information only: do not use for flight planning or navigation.
Latest weather
Observation time Tuesday, October 19, 2021 1:55 AM PDT
Local time Tuesday, October 19, 2021 2:37 AM PDT
Flight conditions Visual Meteorological Conditions
Winds
Wind direction South-Southwest (210°)
Wind speed 5 mph
Visibility 10 mi.
Sky condition
Ceiling unlimited
Sky clear
Temperature 53°F
Dewpoint 44°F
Altimeter 29.98 in.Hg
Pressure change last 3 hours-0.01 in.Hg
Pressure rising more slowly
Derived measurements
Relative humidity 71%
Density altitude -243 ft.
Sea-level pressure 30.01 in.Hg
Remarks
Fully automated report.
System requires maintenance.
Automated weather observing station with precipitation discriminator.
METAR KCMA 190855Z AUTO 21004KT 10SM CLR 12/07 A2998 RMK AO2 SLP162 T01170067 51004 $

Settings

Location code

InnerDrive.Weather 4.0.6770.0 Release CLR 4.0.30319.42000
Copyright ©2018 Inner Drive Technology. All rights reserved. Portions Copyright ©1986-2018 David Braverman.

Find weather

Site navigation


Skip Navigation Links

Place info

Page info

PayPal - The safer, easier way to pay online!

Return home.

Copyright ©2021 Inner Drive Technology. Purveyors of fine, hand-crafted computer software. Page printed 2021-10-19T09:37:23 UTC.